Time;durP1;ratioP1;P1;durP2;ratioP2;P2;SDS_P1;SDS_P2;PMS_P1;PMS_P2;Temp;Humidity;BMP_temperature;BMP_pressure;BME280_temperature;BME280_humidity;BME280_pressure;Samples;Min_cycle;Max_cycle;Signal;HPM_P1;HPM_P2
2022/01/17 00:01:29;;;;;;;12.63;7.97;;;2.50;64.50;;;;;;5092728;28;20020;-62
2022/01/17 00:03:55;;;;;;;12.70;8.48;;;2.50;64.60;;;;;;5091305;28;20021;-62
2022/01/17 00:06:21;;;;;;;13.73;8.15;;;2.50;64.70;;;;;;5091667;28;20086;-62
2022/01/17 00:08:49;;;;;;;11.90;7.95;;;2.50;64.80;;;;;;5091785;28;20032;-62
2022/01/17 00:11:16;;;;;;;11.25;7.70;;;2.50;64.80;;;;;;5091412;28;20596;-62
2022/01/17 00:13:45;;;;;;;12.88;7.10;;;2.40;64.80;;;;;;5079401;28;20101;-62
2022/01/17 00:16:28;;;;;;;9.93;7.22;;;2.40;64.70;;;;;;5091748;28;20082;-62
2022/01/17 00:19:30;;;;;;;12.40;6.32;;;2.40;64.70;;;;;;5092779;28;20135;-62
2022/01/17 00:21:49;;;;;;;12.75;7.85;;;2.40;64.90;;;;;;5092113;28;20119;-62
2022/01/17 00:24:16;;;;;;;10.98;8.27;;;2.30;65.10;;;;;;5082408;28;20028;-62
2022/01/17 00:26:41;;;;;;;11.50;7.55;;;2.30;65.30;;;;;;5091788;28;20030;-62
2022/01/17 00:29:07;;;;;;;11.75;8.73;;;2.20;65.30;;;;;;5092934;28;20438;-62
2022/01/17 00:31:33;;;;;;;12.55;8.00;;;2.30;65.60;;;;;;5091537;28;20480;-62
2022/01/17 00:33:58;;;;;;;13.15;8.23;;;2.20;65.50;;;;;;5080867;28;20523;-62
2022/01/17 00:36:24;;;;;;;11.77;7.95;;;2.20;65.60;;;;;;5091214;28;20024;-62
2022/01/17 00:38:50;;;;;;;12.23;7.47;;;2.20;65.60;;;;;;5092816;28;20016;-62
2022/01/17 00:41:15;;;;;;;11.23;7.78;;;2.20;65.60;;;;;;5092685;28;20059;-62
2022/01/17 00:43:41;;;;;;;10.80;6.95;;;2.20;65.70;;;;;;5092784;28;20024;-62
2022/01/17 00:46:06;;;;;;;12.13;7.82;;;2.20;65.60;;;;;;5093730;28;20028;-62
2022/01/17 00:48:32;;;;;;;13.88;9.38;;;2.20;65.80;;;;;;5081652;28;20055;-62
2022/01/17 00:50:58;;;;;;;12.00;7.50;;;2.20;65.80;;;;;;5084549;28;20110;-62
2022/01/17 00:53:23;;;;;;;10.90;7.10;;;2.10;65.60;;;;;;5096661;28;20032;-62
2022/01/17 00:55:49;;;;;;;11.40;7.43;;;2.20;65.70;;;;;;5096432;28;20077;-62
2022/01/17 00:58:15;;;;;;;11.27;7.13;;;2.10;65.60;;;;;;5096366;28;20017;-62
2022/01/17 01:00:41;;;;;;;14.65;8.70;;;2.10;65.60;;;;;;5096607;28;20028;-62
2022/01/17 01:03:07;;;;;;;11.65;8.13;;;2.10;65.80;;;;;;5096507;28;20106;-62
2022/01/17 01:05:33;;;;;;;9.32;6.47;;;2.10;65.80;;;;;;5096345;28;20406;-62
2022/01/17 01:07:59;;;;;;;11.85;6.53;;;2.00;65.80;;;;;;5089306;28;20117;-62
2022/01/17 01:10:25;;;;;;;11.80;8.55;;;2.00;65.80;;;;;;5096142;28;20474;-62
2022/01/17 01:12:51;;;;;;;9.27;6.97;;;2.00;66.00;;;;;;5095913;28;20028;-62
2022/01/17 01:15:22;;;;;;;11.60;8.55;;;1.90;66.00;;;;;;5096118;28;20016;-62
2022/01/17 01:17:52;;;;;;;11.30;6.78;;;2.00;66.30;;;;;;5095328;28;20031;-62
2022/01/17 01:20:53;;;;;;;11.82;8.23;;;1.90;66.30;;;;;;5096312;28;20048;-62
2022/01/17 01:28:40;;;;;;;10.88;7.82;;;1.80;66.70;;;;;;5095940;28;20070;-62
2022/01/17 01:31:13;;;;;;;9.65;7.55;;;1.80;66.60;;;;;;5088232;28;20024;-62
2022/01/17 01:33:48;;;;;;;11.38;8.23;;;1.80;66.70;;;;;;5087348;28;20040;-62
2022/01/17 01:36:20;;;;;;;12.52;8.52;;;1.80;66.70;;;;;;5095984;28;20530;-62
2022/01/17 01:38:45;;;;;;;;;;;1.80;66.70;;;;;;5096319;28;20472;-62
2022/01/17 01:41:11;;;;;;;9.75;6.22;;;1.80;66.50;;;;;;5090233;28;19978;-62
2022/01/17 01:43:37;;;;;;;12.43;8.10;;;1.80;66.50;;;;;;5087697;28;20048;-62
2022/01/17 01:46:03;;;;;;;9.75;6.68;;;1.80;66.50;;;;;;5093964;28;20024;-62
2022/01/17 01:48:34;;;;;;;11.00;8.60;;;1.80;66.50;;;;;;5095489;28;20024;-61
2022/01/17 01:51:00;;;;;;;12.70;7.57;;;1.70;66.60;;;;;;5095469;28;20028;-62
2022/01/17 01:53:26;;;;;;;12.43;8.45;;;1.70;66.50;;;;;;5095349;28;20060;-62
2022/01/17 01:55:54;;;;;;;11.00;6.40;;;1.70;66.70;;;;;;5095221;28;20028;-62
2022/01/17 01:58:22;;;;;;;11.95;8.52;;;1.70;66.70;;;;;;5088630;28;20424;-62
2022/01/17 02:00:48;;;;;;;11.75;6.85;;;1.80;66.90;;;;;;5093531;28;20035;-62
2022/01/17 02:03:14;;;;;;;15.40;7.88;;;1.70;66.70;;;;;;5095177;28;20024;-62
2022/01/17 02:05:40;;;;;;;10.38;6.70;;;1.70;66.80;;;;;;5095113;28;20107;-62
2022/01/17 02:08:10;;;;;;;9.60;6.57;;;1.70;66.80;;;;;;5095087;28;20060;-62
2022/01/17 02:10:36;;;;;;;14.15;9.00;;;1.80;66.90;;;;;;5094872;28;20499;-62
2022/01/17 02:13:02;;;;;;;13.07;8.20;;;1.70;66.90;;;;;;5094853;28;20162;-62
2022/01/17 02:15:27;;;;;;;11.25;7.60;;;1.70;66.80;;;;;;5087748;28;20563;-62
2022/01/17 02:17:55;;;;;;;9.02;7.47;;;1.70;66.90;;;;;;5095175;28;20111;-62
2022/01/17 02:20:23;;;;;;;10.07;6.70;;;1.70;66.90;;;;;;5094832;28;20126;-62
2022/01/17 02:22:50;;;;;;;11.38;7.75;;;1.70;66.80;;;;;;5094843;28;20020;-62
2022/01/17 02:25:16;;;;;;;13.05;8.82;;;1.70;66.80;;;;;;5094741;28;20107;-62
2022/01/17 02:27:42;;;;;;;11.00;7.40;;;1.70;67.10;;;;;;5094655;28;20067;-62
2022/01/17 02:30:10;;;;;;;11.77;7.75;;;1.70;67.00;;;;;;5094725;28;20115;-62
2022/01/17 02:32:36;;;;;;;8.15;6.38;;;1.70;67.10;;;;;;5085763;28;20024;-62
2022/01/17 02:35:17;;;;;;;12.35;8.57;;;1.60;67.10;;;;;;5090385;28;20028;-62
2022/01/17 02:37:43;;;;;;;12.38;8.07;;;1.70;67.20;;;;;;5075642;28;20025;-62
2022/01/17 02:40:10;;;;;;;12.75;8.07;;;1.70;67.10;;;;;;5092294;28;20137;-62
2022/01/17 02:42:37;;;;;;;12.10;8.00;;;1.70;67.20;;;;;;5094334;28;20020;-62
2022/01/17 02:45:20;;;;;;;13.85;7.97;;;1.70;67.20;;;;;;5091515;28;20024;-62
2022/01/17 02:47:46;;;;;;;15.35;10.32;;;1.70;67.10;;;;;;5094688;28;20086;-62
2022/01/17 02:50:12;;;;;;;16.67;9.57;;;1.70;67.00;;;;;;5086413;28;20036;-62
2022/01/17 02:52:37;;;;;;;16.00;9.23;;;1.70;67.00;;;;;;5094431;28;20063;-62
2022/01/17 02:55:04;;;;;;;15.15;10.88;;;1.70;67.10;;;;;;5093979;28;20085;-62
2022/01/17 02:57:33;;;;;;;19.73;12.35;;;1.80;67.20;;;;;;5094182;28;20074;-62
2022/01/17 02:59:59;;;;;;;14.57;9.50;;;1.80;67.10;;;;;;5093972;28;20032;-61
2022/01/17 03:02:25;;;;;;;16.20;9.10;;;1.80;67.50;;;;;;5094105;28;20086;-62
2022/01/17 03:04:50;;;;;;;14.07;9.27;;;1.70;67.20;;;;;;5093993;28;20055;-62
2022/01/17 03:07:16;;;;;;;12.77;8.50;;;1.70;67.20;;;;;;5090916;28;20387;-62
2022/01/17 03:09:59;;;;;;;11.75;7.30;;;1.70;67.20;;;;;;5093839;28;20527;-62
2022/01/17 03:12:25;;;;;;;14.65;9.85;;;1.70;67.30;;;;;;5080643;28;20032;-62
2022/01/17 03:14:51;;;;;;;13.35;7.90;;;1.70;67.50;;;;;;5081547;28;20021;-62
2022/01/17 03:17:16;;;;;;;10.50;7.38;;;1.70;67.40;;;;;;5092591;28;20432;-62
2022/01/17 03:19:42;;;;;;;13.23;8.63;;;1.70;67.40;;;;;;5093801;28;20103;-62
2022/01/17 03:22:08;;;;;;;14.70;10.15;;;1.70;67.50;;;;;;5093451;28;20105;-62
2022/01/17 03:24:33;;;;;;;12.38;7.68;;;1.70;67.40;;;;;;5087715;28;20070;-62
2022/01/17 03:26:59;;;;;;;13.82;8.30;;;1.70;67.20;;;;;;5093866;28;20020;-62
2022/01/17 03:29:24;;;;;;;13.10;9.15;;;1.80;67.20;;;;;;5093608;28;20553;-62
2022/01/17 03:31:50;;;;;;;13.40;9.13;;;1.80;67.20;;;;;;5093511;28;20023;-62
2022/01/17 03:34:16;;;;;;;14.52;8.63;;;1.90;67.20;;;;;;5093531;28;20468;-62
2022/01/17 03:36:44;;;;;;;15.60;9.80;;;1.90;67.00;;;;;;5093322;28;20028;-62
2022/01/17 03:39:10;;;;;;;14.10;9.50;;;1.90;67.00;;;;;;5093677;28;20464;-62
2022/01/17 03:41:35;;;;;;;14.77;10.45;;;2.00;66.90;;;;;;5087481;28;20020;-61
2022/01/17 03:44:01;;;;;;;17.35;11.30;;;2.10;66.80;;;;;;5081760;28;20020;-62
2022/01/17 03:46:27;;;;;;;14.20;9.93;;;2.10;66.60;;;;;;5087987;28;20024;-62
2022/01/17 03:48:53;;;;;;;13.23;9.75;;;2.20;66.50;;;;;;5093292;28;20521;-62
2022/01/17 03:51:18;;;;;;;14.10;8.77;;;2.20;66.40;;;;;;5093260;28;20028;-62
2022/01/17 03:53:44;;;;;;;12.15;8.10;;;2.20;66.30;;;;;;5093526;28;20051;-62
2022/01/17 03:56:10;;;;;;;13.02;9.68;;;2.20;66.40;;;;;;5093088;28;20024;-62
2022/01/17 03:58:35;;;;;;;15.02;10.55;;;2.20;66.30;;;;;;5083112;28;20017;-62
2022/01/17 04:01:02;;;;;;;15.05;10.40;;;2.20;66.30;;;;;;5093149;28;20349;-62
2022/01/17 04:03:28;;;;;;;16.65;11.60;;;2.30;66.40;;;;;;5092930;28;20016;-62
2022/01/17 04:05:54;;;;;;;17.77;10.45;;;2.30;66.20;;;;;;5093133;28;20495;-62
2022/01/17 04:08:20;;;;;;;16.45;11.25;;;2.30;66.30;;;;;;5093230;28;20028;-62
2022/01/17 04:10:46;;;;;;;17.33;11.60;;;2.30;66.40;;;;;;5093053;28;20030;-62
2022/01/17 04:13:11;;;;;;;14.23;10.20;;;2.30;66.20;;;;;;5092254;28;20043;-62
2022/01/17 04:15:37;;;;;;;15.63;11.32;;;2.40;66.10;;;;;;5080647;28;20494;-62
2022/01/17 04:18:06;;;;;;;16.65;11.00;;;2.40;65.90;;;;;;5093064;28;20102;-62
2022/01/17 04:20:32;;;;;;;16.27;11.02;;;2.40;65.80;;;;;;5093236;28;20484;-62
2022/01/17 04:23:01;;;;;;;17.15;11.00;;;2.40;65.60;;;;;;5094182;28;20027;-62
2022/01/17 04:25:29;;;;;;;15.27;11.23;;;2.40;65.70;;;;;;5097208;28;20024;-62
2022/01/17 04:27:56;;;;;;;14.93;11.40;;;2.40;65.70;;;;;;5097273;28;20046;-62
2022/01/17 04:30:22;;;;;;;17.25;11.07;;;2.50;65.80;;;;;;5096958;28;20024;-62
2022/01/17 04:32:48;;;;;;;14.27;10.75;;;2.50;65.70;;;;;;5091522;28;20035;-62
2022/01/17 04:35:20;;;;;;;18.92;11.98;;;2.50;65.50;;;;;;5083031;28;20030;-62
2022/01/17 04:38:01;;;;;;;15.73;11.55;;;2.60;65.40;;;;;;5096899;28;20442;-62
2022/01/17 04:40:34;;;;;;;17.52;11.98;;;2.60;65.90;;;;;;5096688;28;20348;-62
2022/01/17 04:43:02;;;;;;;18.30;12.48;;;2.70;65.10;;;;;;5095411;28;20086;-62
2022/01/17 04:45:28;;;;;;;18.40;13.05;;;2.70;64.90;;;;;;5076232;28;20055;-62
2022/01/17 04:47:54;;;;;;;20.42;12.00;;;2.70;64.70;;;;;;5090207;28;20060;-62
2022/01/17 04:50:22;;;;;;;18.83;12.98;;;2.70;64.40;;;;;;5096627;28;20028;-62
2022/01/17 04:52:48;;;;;;;19.42;12.32;;;2.70;64.10;;;;;;5083798;28;20037;-62
2022/01/17 04:55:16;;;;;;;21.08;12.45;;;2.70;64.00;;;;;;5096438;28;20032;-62
2022/01/17 04:57:43;;;;;;;15.52;10.30;;;2.70;63.90;;;;;;5096694;28;20476;-62
2022/01/17 05:00:11;;;;;;;16.92;11.02;;;2.70;63.80;;;;;;5096781;28;20471;-62
2022/01/17 05:02:37;;;;;;;14.82;10.35;;;2.70;63.80;;;;;;5096403;28;20026;-62
2022/01/17 05:05:04;;;;;;;17.52;11.40;;;2.70;64.00;;;;;;5092189;28;20033;-62
2022/01/17 05:07:33;;;;;;;14.48;10.55;;;2.60;63.70;;;;;;5090024;28;20498;-62
2022/01/17 05:10:00;;;;;;;15.38;10.50;;;2.60;63.60;;;;;;5096226;28;20085;-62
2022/01/17 05:12:26;;;;;;;17.90;10.60;;;2.60;63.60;;;;;;5096334;28;20028;-62
2022/01/17 05:14:53;;;;;;;14.98;11.73;;;2.50;63.60;;;;;;5081676;28;20024;-62
2022/01/17 05:19:58;;;;;;;16.08;10.43;;;2.40;63.80;;;;;;5094868;28;20532;-62
2022/01/17 05:22:30;;;;;;;16.05;11.35;;;2.40;63.90;;;;;;5088426;28;20078;-62
2022/01/17 05:24:57;;;;;;;17.40;10.68;;;2.40;64.10;;;;;;5093593;28;20411;-62
2022/01/17 05:27:22;;;;;;;18.45;13.40;;;2.30;64.00;;;;;;5094775;28;20448;-62
2022/01/17 05:29:48;;;;;;;17.90;11.50;;;2.30;64.20;;;;;;5095896;28;20052;-62
2022/01/17 05:32:14;;;;;;;14.07;9.90;;;2.30;64.30;;;;;;5083534;28;20039;-62
2022/01/17 05:34:41;;;;;;;17.52;12.07;;;2.30;64.20;;;;;;5094630;28;20026;-62
2022/01/17 05:37:08;;;;;;;18.08;11.10;;;2.30;64.30;;;;;;5094854;28;20016;-62
2022/01/17 05:39:34;;;;;;;17.02;11.40;;;2.30;64.30;;;;;;5089149;28;20661;-62
2022/01/17 05:42:00;;;;;;;18.25;11.07;;;2.30;64.30;;;;;;5085830;28;20017;-62
2022/01/17 05:44:25;;;;;;;17.20;11.80;;;2.30;64.20;;;;;;5089380;28;20036;-62
2022/01/17 05:46:51;;;;;;;14.75;9.20;;;2.30;64.50;;;;;;5095076;28;20056;-62
2022/01/17 05:49:17;;;;;;;15.70;10.32;;;2.30;64.50;;;;;;5095381;28;20016;-62
2022/01/17 05:51:43;;;;;;;16.83;12.40;;;2.40;64.70;;;;;;5090277;28;20487;-62
2022/01/17 05:54:09;;;;;;;18.17;12.77;;;2.40;64.80;;;;;;5077721;28;20031;-62
2022/01/17 05:56:34;;;;;;;25.13;12.98;;;2.50;64.80;;;;;;5090184;28;20024;-62
2022/01/17 05:59:00;;;;;;;18.92;13.13;;;2.50;64.90;;;;;;5086058;28;20027;-62
2022/01/17 06:01:26;;;;;;;16.65;11.05;;;2.60;64.70;;;;;;5078916;28;20099;-62
2022/01/17 06:03:52;;;;;;;15.63;12.15;;;2.60;64.50;;;;;;5078939;28;20346;-62
2022/01/17 06:06:17;;;;;;;16.25;10.82;;;2.60;64.40;;;;;;5079866;28;20028;-62
2022/01/17 06:08:43;;;;;;;19.38;12.85;;;2.70;64.30;;;;;;5082669;28;20103;-62
2022/01/17 06:11:09;;;;;;;17.20;11.63;;;2.70;64.30;;;;;;5081834;28;20028;-62
2022/01/17 06:13:35;;;;;;;16.63;11.43;;;2.70;64.10;;;;;;5077558;28;20536;-62
2022/01/17 06:16:00;;;;;;;17.42;11.48;;;2.70;64.00;;;;;;5081242;28;20056;-62
2022/01/17 06:18:26;;;;;;;16.48;11.20;;;2.60;63.80;;;;;;5081704;28;20130;-61
2022/01/17 06:20:52;;;;;;;15.63;10.68;;;2.60;63.90;;;;;;5076961;28;20050;-61
2022/01/17 06:23:18;;;;;;;15.80;11.23;;;2.60;63.70;;;;;;5094305;28;20482;-61
2022/01/17 06:25:43;;;;;;;17.58;10.80;;;2.60;63.80;;;;;;5083831;28;20032;-61
2022/01/17 06:28:09;;;;;;;16.08;10.07;;;2.60;63.70;;;;;;5077919;28;20444;-61
2022/01/17 06:30:35;;;;;;;12.98;9.45;;;2.60;63.50;;;;;;5081276;28;20054;-61
2022/01/17 06:33:03;;;;;;;12.95;9.77;;;2.60;63.50;;;;;;5079391;28;20031;-61
2022/01/17 06:35:29;;;;;;;16.42;11.68;;;2.60;63.30;;;;;;5092815;28;20028;-61
2022/01/17 06:37:55;;;;;;;13.52;10.40;;;2.60;63.30;;;;;;5081362;28;20042;-61
2022/01/17 06:40:21;;;;;;;14.70;10.63;;;2.70;63.40;;;;;;5088939;28;20103;-62
2022/01/17 06:42:46;;;;;;;18.30;11.65;;;2.70;63.50;;;;;;5078766;28;20016;-61
2022/01/17 06:45:14;;;;;;;16.23;10.98;;;2.70;63.40;;;;;;5080720;28;20056;-61
2022/01/17 06:47:40;;;;;;;15.73;11.57;;;2.70;63.40;;;;;;5086126;28;20487;-61
2022/01/17 06:50:08;;;;;;;15.85;10.63;;;2.80;63.20;;;;;;5075492;28;20159;-61
2022/01/17 06:52:34;;;;;;;14.82;10.02;;;2.80;63.20;;;;;;5073391;28;20033;-62
2022/01/17 06:55:00;;;;;;;18.15;11.63;;;2.80;63.00;;;;;;5077217;28;20513;-62
2022/01/17 06:57:26;;;;;;;13.60;10.60;;;2.80;63.10;;;;;;5070657;28;20020;-61
2022/01/17 06:59:52;;;;;;;16.10;11.15;;;2.90;63.00;;;;;;5076738;28;20032;-63
2022/01/17 07:02:18;;;;;;;13.68;10.50;;;2.90;63.70;;;;;;5061270;28;20075;-62
2022/01/17 07:04:44;;;;;;;19.42;12.52;;;2.90;62.90;;;;;;5072473;28;20086;-62
2022/01/17 07:07:10;;;;;;;17.77;12.55;;;3.00;62.90;;;;;;5066549;28;20483;-63
2022/01/17 07:09:36;;;;;;;18.02;13.32;;;3.00;62.90;;;;;;5070718;28;20134;-62
2022/01/17 07:12:05;;;;;;;18.98;13.45;;;3.10;62.80;;;;;;5065325;28;20016;-62
2022/01/17 07:14:31;;;;;;;19.85;11.93;;;3.10;62.70;;;;;;5061355;28;20169;-61
2022/01/17 07:16:58;;;;;;;16.92;11.88;;;3.10;62.70;;;;;;5055786;28;20686;-60
2022/01/17 07:19:24;;;;;;;14.25;10.80;;;3.20;62.70;;;;;;5069904;28;20061;-61
2022/01/17 07:21:51;;;;;;;16.55;12.07;;;3.20;62.60;;;;;;5067650;28;20041;-60
2022/01/17 07:24:17;;;;;;;16.58;12.20;;;3.20;62.60;;;;;;5066533;28;20020;-60
2022/01/17 07:26:43;;;;;;;19.98;11.65;;;3.20;62.60;;;;;;5066493;28;20458;-61
2022/01/17 07:29:09;;;;;;;16.08;11.13;;;3.30;62.60;;;;;;5066656;28;20032;-62
2022/01/17 07:31:36;;;;;;;16.30;11.05;;;3.30;62.60;;;;;;5063510;28;20143;-60
2022/01/17 07:34:02;;;;;;;16.75;11.90;;;3.40;62.50;;;;;;5065580;28;20118;-62
2022/01/17 07:36:29;;;;;;;14.77;11.05;;;3.40;62.40;;;;;;5064132;28;20036;-61
2022/01/17 07:38:54;;;;;;;16.58;11.32;;;3.50;62.30;;;;;;5073491;28;20032;-60
2022/01/17 07:41:20;;;;;;;15.70;10.40;;;3.50;62.20;;;;;;5068411;28;20538;-61
2022/01/17 07:43:47;;;;;;;17.88;11.63;;;3.50;62.20;;;;;;5072878;28;20024;-60
2022/01/17 07:47:00;;;;;;;15.05;10.77;;;3.60;62.30;;;;;;5068858;28;20458;-60
2022/01/17 07:49:13;;;;;;;16.05;11.63;;;3.60;62.30;;;;;;5055443;28;20040;-60
2022/01/17 07:51:41;;;;;;;18.17;12.18;;;3.60;62.20;;;;;;5075068;28;20170;-63
2022/01/17 07:54:10;;;;;;;16.42;11.68;;;3.70;62.20;;;;;;5071316;28;20594;-62
2022/01/17 07:56:36;;;;;;;18.85;13.18;;;3.80;62.00;;;;;;5070613;28;20040;-63
2022/01/17 07:59:03;;;;;;;15.27;11.50;;;3.80;62.00;;;;;;5068351;28;20078;-61
2022/01/17 08:01:29;;;;;;;16.20;11.70;;;3.90;62.00;;;;;;5069292;28;20028;-59
2022/01/17 08:03:54;;;;;;;17.00;12.82;;;3.90;61.90;;;;;;5070586;28;20035;-60
2022/01/17 08:06:20;;;;;;;16.75;12.18;;;4.00;62.00;;;;;;5063010;28;20413;-63
2022/01/17 08:08:47;;;;;;;18.25;11.73;;;4.00;61.70;;;;;;5056641;28;20036;-62
2022/01/17 08:11:13;;;;;;;17.27;11.63;;;4.10;61.80;;;;;;5060245;28;20036;-61
2022/01/17 08:13:39;;;;;;;16.27;11.25;;;4.10;61.70;;;;;;5055135;28;20032;-61
2022/01/17 08:16:04;;;;;;;18.48;12.13;;;4.20;61.50;;;;;;5061893;28;20105;-63
2022/01/17 08:18:30;;;;;;;15.63;11.85;;;4.20;61.60;;;;;;5057760;28;20036;-60
2022/01/17 08:20:58;;;;;;;17.08;12.15;;;4.20;61.40;;;;;;5060445;28;20179;-62
2022/01/17 08:23:24;;;;;;;20.40;13.30;;;4.30;61.40;;;;;;5056896;28;20032;-62
2022/01/17 08:25:50;;;;;;;17.42;12.55;;;4.30;61.50;;;;;;5060497;28;20033;-63
2022/01/17 08:28:16;;;;;;;17.63;12.07;;;4.30;61.60;;;;;;5053826;28;20043;-62
2022/01/17 08:30:42;;;;;;;17.05;11.95;;;4.30;61.70;;;;;;5061888;28;20100;-62
2022/01/17 08:33:07;;;;;;;17.27;12.02;;;4.30;61.70;;;;;;5063280;28;20047;-63
2022/01/17 08:35:33;;;;;;;21.50;12.82;;;4.40;61.80;;;;;;5053688;28;20024;-61
2022/01/17 08:37:59;;;;;;;17.60;11.82;;;4.40;62.00;;;;;;5059580;28;20028;-61
2022/01/17 08:40:26;;;;;;;18.58;12.60;;;4.40;62.10;;;;;;5062638;28;20036;-61
2022/01/17 08:42:51;;;;;;;19.92;12.75;;;4.50;62.20;;;;;;5064100;28;20028;-60
2022/01/17 08:45:18;;;;;;;22.40;14.05;;;4.50;62.30;;;;;;5065603;28;20415;-60
2022/01/17 08:47:49;;;;;;;16.98;11.88;;;4.60;62.50;;;;;;5047028;28;20089;-60
2022/01/17 08:50:16;;;;;;;15.80;12.02;;;4.60;62.60;;;;;;5061414;28;20115;-61
2022/01/17 08:52:43;;;;;;;18.05;12.02;;;4.70;62.60;;;;;;5062621;28;20468;-60
2022/01/17 08:55:09;;;;;;;20.88;13.25;;;4.70;62.50;;;;;;5066552;28;20036;-61
2022/01/17 08:57:35;;;;;;;17.73;12.15;;;4.80;62.30;;;;;;5058015;28;20141;-59
2022/01/17 09:00:01;;;;;;;16.88;12.57;;;4.80;62.30;;;;;;5066120;28;20026;-60
2022/01/17 09:02:26;;;;;;;18.83;12.88;;;4.90;62.20;;;;;;5042535;28;20024;-60
2022/01/17 09:04:52;;;;;;;18.58;12.48;;;4.90;62.10;;;;;;5054726;28;20041;-60
2022/01/17 09:07:18;;;;;;;17.38;12.90;;;4.90;62.10;;;;;;5052164;28;20036;-60
2022/01/17 09:09:45;;;;;;;21.27;13.07;;;4.90;62.10;;;;;;5062486;28;20055;-61
2022/01/17 09:12:12;;;;;;;18.10;13.15;;;4.90;62.10;;;;;;5055830;28;20028;-63
2022/01/17 09:14:39;;;;;;;16.73;11.25;;;4.90;62.10;;;;;;5071393;28;21431;-63
2022/01/17 09:17:08;;;;;;;16.88;12.25;;;4.90;62.10;;;;;;5068437;28;20240;-61
2022/01/17 09:19:34;;;;;;;22.20;13.70;;;5.00;62.00;;;;;;5069678;28;20463;-59
2022/01/17 09:22:01;;;;;;;17.10;12.43;;;5.00;62.10;;;;;;5069527;28;20067;-62
2022/01/17 09:24:27;;;;;;;15.48;11.15;;;5.00;61.90;;;;;;5068572;28;20518;-62
2022/01/17 09:26:53;;;;;;;16.50;12.88;;;5.00;61.70;;;;;;5051395;28;20047;-62
2022/01/17 09:29:20;;;;;;;18.30;11.95;;;5.10;61.60;;;;;;5072527;28;20052;-64
2022/01/17 09:31:46;;;;;;;18.15;13.43;;;5.10;61.50;;;;;;5063542;28;20051;-62
2022/01/17 09:34:11;;;;;;;20.08;13.02;;;5.10;61.40;;;;;;5064789;28;20051;-61
2022/01/17 09:36:37;;;;;;;15.85;11.60;;;5.20;61.40;;;;;;5068782;28;20119;-61
2022/01/17 09:39:07;;;;;;;16.55;11.88;;;5.20;61.50;;;;;;5073054;28;20116;-61
2022/01/17 09:41:33;;;;;;;19.65;12.70;;;5.20;61.50;;;;;;5062128;28;20046;-58
2022/01/17 09:43:59;;;;;;;18.02;12.50;;;5.30;61.40;;;;;;5062325;28;20054;-61
2022/01/17 09:46:31;;;;;;;18.35;12.77;;;5.30;61.40;;;;;;5065360;28;20756;-61
2022/01/17 09:49:02;;;;;;;16.73;11.80;;;5.40;61.40;;;;;;5062570;28;20040;-60
2022/01/17 09:51:51;;;;;;;17.33;12.73;;;5.40;61.50;;;;;;5071348;28;20047;-62
2022/01/17 09:54:20;;;;;;;18.98;12.65;;;5.40;61.50;;;;;;5062562;28;20360;-60
2022/01/17 09:56:50;;;;;;;17.52;11.93;;;5.40;61.30;;;;;;5056165;28;20024;-61
2022/01/17 09:59:16;;;;;;;16.88;12.85;;;5.40;61.40;;;;;;5065040;28;20060;-62
2022/01/17 10:01:42;;;;;;;17.98;12.48;;;5.40;61.20;;;;;;5066500;28;20026;-61
2022/01/17 10:04:09;;;;;;;16.85;12.75;;;5.50;61.30;;;;;;5067408;28;20056;-61
2022/01/17 10:06:35;;;;;;;15.63;11.73;;;5.50;61.40;;;;;;5049966;28;20074;-61
2022/01/17 10:09:17;;;;;;;16.80;12.02;;;5.50;61.50;;;;;;5062906;28;20040;-60
2022/01/17 10:12:10;;;;;;;17.63;11.90;;;5.50;61.40;;;;;;5069160;28;20032;-59
2022/01/17 10:14:42;;;;;;;21.13;13.30;;;5.50;62.00;;;;;;5054187;28;20098;-62
2022/01/17 10:17:16;;;;;;;19.90;12.68;;;5.60;61.50;;;;;;5055165;28;20035;-59
2022/01/17 10:19:44;;;;;;;17.67;12.63;;;5.60;61.60;;;;;;5061804;28;20597;-63
2022/01/17 10:22:20;;;;;;;17.83;13.55;;;5.60;61.70;;;;;;5045197;28;20070;-60
2022/01/17 10:25:16;;;;;;;19.23;12.93;;;5.60;61.60;;;;;;5065208;28;20056;-61
2022/01/17 10:35:34;;;;;;;18.80;12.98;;;5.80;61.70;;;;;;5071878;28;20039;-61
2022/01/17 10:38:18;;;;;;;16.02;11.88;;;5.80;61.50;;;;;;5058814;28;20059;-60
2022/01/17 10:40:53;;;;;;;15.23;11.85;;;5.80;61.70;;;;;;5075080;28;20020;-58
2022/01/17 10:43:21;;;;;;;14.77;10.57;;;5.90;61.70;;;;;;5064990;28;20082;-60
2022/01/17 10:45:48;;;;;;;16.58;12.55;;;5.90;61.60;;;;;;5065106;28;20021;-59
2022/01/17 10:48:14;;;;;;;17.33;12.80;;;6.00;61.70;;;;;;5065904;28;20063;-62
2022/01/17 10:50:43;;;;;;;19.35;13.20;;;6.00;61.70;;;;;;5063649;28;20165;-62
2022/01/17 10:53:12;;;;;;;18.67;12.75;;;6.00;61.60;;;;;;5066741;28;20032;-60
2022/01/17 10:55:40;;;;;;;18.27;13.32;;;6.00;61.80;;;;;;5064805;28;20036;-61
2022/01/17 10:58:12;;;;;;;18.55;12.73;;;6.10;61.70;;;;;;5068242;28;20020;-61
2022/01/17 11:00:39;;;;;;;16.63;12.32;;;6.00;61.70;;;;;;5060190;28;20385;-60
2022/01/17 11:03:11;;;;;;;18.15;12.40;;;6.00;61.60;;;;;;5063491;28;20064;-61
2022/01/17 11:05:42;;;;;;;15.48;11.98;;;6.00;61.70;;;;;;5062062;28;20132;-60
2022/01/17 11:08:08;;;;;;;;;;;6.10;61.70;;;;;;5064374;28;20067;-58
2022/01/17 11:10:36;;;;;;;13.40;11.07;;;6.00;61.70;;;;;;5062942;28;19912;-60
2022/01/17 11:13:07;;;;;;;19.80;13.15;;;6.00;62.00;;;;;;5065909;28;20040;-59
2022/01/17 11:15:34;;;;;;;17.52;12.00;;;6.00;61.90;;;;;;5066597;28;20607;-60
2022/01/17 11:18:17;;;;;;;17.23;11.27;;;6.00;62.00;;;;;;5072659;28;20406;-60
2022/01/17 11:20:43;;;;;;;17.50;12.20;;;6.00;62.10;;;;;;5070735;28;20082;-60
2022/01/17 11:23:09;;;;;;;19.35;12.45;;;5.90;62.30;;;;;;5072756;28;20074;-60
2022/01/17 11:25:37;;;;;;;17.52;12.07;;;6.00;62.30;;;;;;5067205;28;20069;-59
2022/01/17 11:28:06;;;;;;;17.98;13.13;;;6.00;62.40;;;;;;5073620;28;20532;-60
2022/01/17 11:30:35;;;;;;;22.88;13.98;;;6.10;62.60;;;;;;5068589;28;20087;-59
2022/01/17 11:33:07;;;;;;;17.63;11.70;;;6.10;62.40;;;;;;5072172;28;20119;-60
2022/01/17 11:35:37;;;;;;;17.27;12.15;;;6.20;62.50;;;;;;5073060;28;20032;-60
2022/01/17 11:38:04;;;;;;;22.48;14.32;;;6.20;62.40;;;;;;5065859;28;20387;-59
2022/01/17 11:40:33;;;;;;;17.77;12.25;;;6.20;62.30;;;;;;5072976;28;20028;-60
2022/01/17 11:43:00;;;;;;;19.48;13.63;;;6.30;62.40;;;;;;5069562;28;20017;-59
2022/01/17 11:45:29;;;;;;;20.02;13.75;;;6.30;62.40;;;;;;5068530;28;20556;-58
2022/01/17 11:48:02;;;;;;;19.42;13.38;;;6.30;62.50;;;;;;5073061;28;20182;-60
2022/01/17 11:50:32;;;;;;;18.63;13.85;;;6.30;62.50;;;;;;5073913;28;20032;-60
2022/01/17 11:53:18;;;;;;;20.77;13.45;;;6.30;62.60;;;;;;5072850;28;20067;-60
2022/01/17 11:55:46;;;;;;;17.98;12.52;;;6.30;62.50;;;;;;5055404;28;20071;-59
2022/01/17 11:58:50;;;;;;;18.70;12.50;;;6.40;62.70;;;;;;5066717;28;20041;-60
2022/01/17 12:01:20;;;;;;;17.33;11.98;;;6.40;62.70;;;;;;5041066;28;20562;-59
2022/01/17 12:03:53;;;;;;;15.60;11.50;;;6.40;62.50;;;;;;5063649;28;21051;-58
2022/01/17 12:06:31;;;;;;;13.90;10.65;;;6.40;62.60;;;;;;5057085;28;20438;-60
2022/01/17 12:09:22;;;;;;;14.77;10.68;;;6.40;62.70;;;;;;5060397;28;20040;-59
2022/01/17 12:12:08;;;;;;;17.35;11.82;;;6.40;62.90;;;;;;5052268;28;20029;-60
2022/01/17 12:14:37;;;;;;;16.38;10.93;;;6.30;63.10;;;;;;5030847;28;20539;-59
2022/01/17 12:17:21;;;;;;;16.90;11.57;;;6.30;63.30;;;;;;5062076;28;20119;-59
2022/01/17 12:20:06;;;;;;;14.38;12.05;;;6.30;63.40;;;;;;5062726;28;20041;-59
2022/01/17 12:22:43;;;;;;;17.25;12.02;;;6.20;63.50;;;;;;5061005;28;20036;-60
2022/01/17 12:25:25;;;;;;;15.70;10.98;;;6.20;63.60;;;;;;5055689;28;20036;-60
2022/01/17 12:28:16;;;;;;;13.30;10.98;;;6.20;63.70;;;;;;5064211;28;20033;-60
2022/01/17 12:30:49;;;;;;;17.93;11.77;;;6.10;63.80;;;;;;5060013;28;20134;-60
2022/01/17 12:33:27;;;;;;;14.30;9.98;;;6.10;64.10;;;;;;5056897;28;21009;-60
2022/01/17 12:35:56;;;;;;;16.77;10.57;;;6.10;64.00;;;;;;5061285;28;20032;-60
2022/01/17 12:38:41;;;;;;;18.75;12.13;;;6.10;64.10;;;;;;5067158;28;20479;-60
2022/01/17 12:41:27;;;;;;;17.60;11.85;;;6.10;64.20;;;;;;5060022;28;20123;-60
2022/01/17 12:43:53;;;;;;;17.80;12.45;;;6.10;64.30;;;;;;5065682;28;20042;-61
2022/01/17 12:46:20;;;;;;;15.48;11.38;;;6.10;64.50;;;;;;5065463;28;20484;-59
2022/01/17 12:48:49;;;;;;;17.08;12.40;;;6.10;64.60;;;;;;5064158;28;20110;-60
2022/01/17 12:51:15;;;;;;;15.27;11.35;;;6.10;64.60;;;;;;5069146;28;20044;-60
2022/01/17 12:53:49;;;;;;;15.70;12.18;;;6.10;64.70;;;;;;5073369;28;20028;-59
2022/01/17 12:56:15;;;;;;;14.55;11.60;;;6.10;64.70;;;;;;5071385;28;20039;-60
2022/01/17 12:58:41;;;;;;;16.58;11.82;;;6.10;64.90;;;;;;5074171;28;20024;-60
2022/01/17 13:01:09;;;;;;;14.85;11.43;;;6.10;65.00;;;;;;5067352;28;20035;-61
2022/01/17 13:03:42;;;;;;;15.50;11.27;;;6.10;65.10;;;;;;5066483;28;20028;-60